Albuquerque, NM (87120)

10:13 PM MST on January 30, 2015 (GMT -0700)
Taylor Ranch (Montano/Cochiti) | Change Station
CLOSE
Current Station
Personal Weather Station
Location: Albuquerque, NM
Elevation: 5135 ft
Nearby Weather Stations

Elev 5135 ft 35.15 °N, 106.71 °W | Updated 37 seconds ago

Overcast
Overcast
34.0 °F
Feels Like 34 °F
N
0.0
Wind Variable Wind from West
Gusts 1.6 mph

Today
High -- | Low -- °F
--% Chance of Precip.
Yesterday
High -- | Low -- °F
Precip. -- in
7:07 AM 5:33 PM
Waxing Gibbous, 87% visible
Pressure 30.05 in
Visibility 10.0 miles
Clouds Few 400 ft
Overcast 2200 ft
Windchill 34 °F
Dew Point 33 °F
Humidity 97%
Rainfall 0.33 in
Snow Depth Not available.
UV 0 out of 12
Pollen .50 out of 12
Air Quality Not available.
Flu Activity Not available.
METAR KABQ 310452Z 05007KT 10SM FEW004 OVC022 03/M01 A3005 RMK AO2 SLP175 MTNS OBSC NE-SE T00281006

More Conditions Fewer Conditions

Pressure 30.05 in
Visibility 10.0 miles
Clouds Few 400 ft
Overcast 2200 ft
Windchill 34 °F
Dew Point 33 °F
Humidity 97%
Rainfall 0.33 in
Snow Depth Not available.
UV 0 out of 12
Pollen .50 out of 12
Air Quality Not available.
Flu Activity Not available.
METAR KABQ 310452Z 05007KT 10SM FEW004 OVC022 03/M01 A3005 RMK AO2 SLP175 MTNS OBSC NE-SE T00281006

More Conditions Fewer Conditions

Nowcast | as of 8:20 PM MST on January 30, 2015

Snow will continue across central and northern New Mexico tonight and during the overnight hours...with some rain at the lower elevations including the Rio Grande Valley. Through 1000 PM MST...snow will impact areas in or near Jemez Pueblo and jemez Spring...Los Alamos...Santa Fe...Taos and Red River. Roads will be impacted including Interstate 25 between La Bajada Hill south of Santa Fe... Santa Fe...Glorieta Pass and Raton Pass as well as Highway 285 between Clines Corners...Santa Fe and Espanola. Around 1 inch of new snow accumulations will be possible above 6000 feet. In addition to snow...areas of fog will reduce visibilities to around one mile and as low as one quarter of a mile just east of the central mountains ...Including the Clines Corners area. For the latest Road conditions visit N M roads dot com or dial 5 1 1.

×

10-Day Weather Forecast

Almanac

Astronomy

Jan. 30, 2015 Rise Set
Actual Time
Civil Twilight
Nautical Twilight
Astronomical Twilight
Moon
Length of Visible Light
Length of Day
Tomorrow will be .
, % of the Moon is Illuminated

Today's Extremes

State Highs State Lows

Community

WunderPhotos

Upload Photos

1,792,005 photos uploaded!

WunderBlogs® & News

Nearby

Air Quality

  Air Quality AQ Index Pollutant
Not available.

Snow Depth

Station Depth Elevation

Earthquake Activity

City Distance Mag. Time & Date
Minimum magnitude displayed is 2.5.

Coastal Water Temperatures

Place Temperature

Nearby Weather Stations